Hillandale, Maryland
Current Conditions -  °F | °C
As of 9:10 PM on Thursday 20 Nov 2014 (Local Time) from KCGS Reporting Station
Clear Clear  
Wind Chill: -1°   Ceiling: Unl
Heat Index:   Visibility: 10mi
Dew Point: -11°   Wind: 9mph
Humidity: 36%   Direction: 310°NW
Pressure: 30.04"   Gusts: NA
Location:  39.0169°N, 76.9848°W
Report Text: KCGS 210210Z AUTO 31008KT 10SM CLR 03/M11 A3004 RMK AO1
Loading
Personal Weather Stations






























Interactive Weather Map New forecast layout! Learn more

10-Day Weather Forecast

Advertisements
Track Severe Weather on mobile